Time;durP1;ratioP1;P1;durP2;ratioP2;P2;SDS_P1;SDS_P2;PMS_P1;PMS_P2;Temp;Humidity;BMP_temperature;BMP_pressure;BME280_temperature;BME280_humidity;BME280_pressure;Samples;Min_cycle;Max_cycle;Signal;HPM_P1;HPM_P2
2022/07/18 00:01:50;;;;;;;2.83;1.00;;;;;;;20.90;26.12;96948.28;5112927;28;20529;-68
2022/07/18 00:04:18;;;;;;;1.02;0.93;;;;;;;20.78;26.98;96954.47;5112943;28;20051;-69
2022/07/18 00:06:45;;;;;;;1.58;0.80;;;;;;;20.66;26.47;96961.53;5112917;28;20071;-69
2022/07/18 00:09:12;;;;;;;0.88;0.85;;;;;;;20.59;28.07;96963.78;5113015;28;20044;-69
2022/07/18 00:11:39;;;;;;;3.92;1.08;;;;;;;20.47;29.30;96967.31;5116473;28;20109;-68
2022/07/18 00:14:06;;;;;;;1.77;1.10;;;;;;;20.30;29.63;96974.69;5116670;28;20083;-69
2022/07/18 00:16:35;;;;;;;15.38;1.52;;;;;;;20.16;29.30;96973.84;5116642;28;20108;-68
2022/07/18 00:19:02;;;;;;;3.55;0.88;;;;;;;20.05;30.24;96979.91;5116703;28;20051;-70
2022/07/18 00:21:30;;;;;;;1.02;0.82;;;;;;;19.94;31.04;96972.69;5116498;28;20078;-69
2022/07/18 00:23:57;;;;;;;3.28;1.13;;;;;;;19.78;31.82;96972.03;5116523;28;20093;-69
2022/07/18 00:26:24;;;;;;;1.20;1.10;;;;;;;19.57;32.23;96969.91;5116358;28;20526;-68
2022/07/18 00:28:51;;;;;;;1.58;1.10;;;;;;;19.43;32.90;96979.63;5116475;28;20047;-69
2022/07/18 00:31:18;;;;;;;1.58;1.15;;;;;;;19.27;33.37;96976.31;5116435;28;20086;-69
2022/07/18 00:33:46;;;;;;;1.08;1.02;;;;;;;19.08;34.03;96977.50;5116385;28;20087;-69
2022/07/18 00:36:14;;;;;;;1.98;1.40;;;;;;;18.91;34.47;96973.31;5116354;28;20122;-69
2022/07/18 00:38:41;;;;;;;1.75;0.85;;;;;;;18.69;34.59;96975.53;5116361;28;20051;-68
2022/07/18 00:41:09;;;;;;;4.95;1.30;;;;;;;18.51;35.35;96979.38;5116323;28;20083;-69
2022/07/18 00:43:36;;;;;;;3.75;1.10;;;;;;;18.27;36.00;96977.31;5115960;28;20394;-69
2022/07/18 00:46:04;;;;;;;2.13;1.23;;;;;;;18.01;35.43;96980.59;5116100;28;20127;-70
2022/07/18 00:48:31;;;;;;;2.63;1.45;;;;;;;17.73;35.21;96989.38;5115978;28;20413;-69
2022/07/18 00:50:59;;;;;;;6.18;1.48;;;;;;;17.56;36.27;96988.56;5116012;28;20505;-69
2022/07/18 00:53:26;;;;;;;1.45;1.10;;;;;;;17.46;36.14;96995.34;5116004;28;20044;-69
2022/07/18 00:55:54;;;;;;;1.95;1.20;;;;;;;17.39;36.92;96992.19;5115764;28;20047;-68
2022/07/18 00:58:22;;;;;;;2.92;0.90;;;;;;;17.32;37.49;96991.72;5115799;28;20071;-69
2022/07/18 01:03:33;;;;;;;1.23;0.93;;;;;;;17.04;38.09;96991.47;5115783;28;20507;-69
2022/07/18 01:06:02;;;;;;;1.83;1.20;;;;;;;16.93;38.62;96985.97;5115752;28;20075;-68
2022/07/18 01:08:29;;;;;;;1.73;1.00;;;;;;;16.81;39.02;96995.44;5115754;28;20096;-69
2022/07/18 01:10:57;;;;;;;1.92;1.05;;;;;;;16.62;38.26;96996.47;5115576;28;20050;-69
2022/07/18 01:13:24;;;;;;;2.65;1.25;;;;;;;16.52;38.29;96990.84;5115560;28;20043;-68
2022/07/18 01:15:51;;;;;;;1.95;1.30;;;;;;;16.41;38.47;96993.22;5115440;28;20054;-68
2022/07/18 01:18:18;;;;;;;1.42;0.98;;;;;;;16.32;39.15;96986.66;5115485;28;20048;-69
2022/07/18 01:20:47;;;;;;;19.83;1.30;;;;;;;16.24;38.86;96996.78;5115092;28;20447;-69
2022/07/18 01:23:14;;;;;;;1.10;0.85;;;;;;;16.22;39.39;96994.22;5115183;28;20048;-70
2022/07/18 01:25:41;;;;;;;4.38;1.20;;;;;;;16.05;39.48;96987.22;5115305;28;20122;-69
2022/07/18 01:28:08;;;;;;;2.10;1.27;;;;;;;15.90;40.48;96999.41;5115265;28;20079;-69
2022/07/18 01:30:35;;;;;;;3.80;1.17;;;;;;;15.79;40.55;96998.16;5115152;28;20048;-70
2022/07/18 01:33:03;;;;;;;1.98;1.05;;;;;;;15.66;41.13;96992.66;5115194;28;20484;-69
2022/07/18 01:35:31;;;;;;;3.25;1.10;;;;;;;15.62;41.03;96996.38;5115199;28;20048;-68
2022/07/18 01:38:02;;;;;;;3.38;1.27;;;;;;;15.61;41.27;96988.56;5115129;28;20093;-69
2022/07/18 01:40:29;;;;;;;;;;;;;;;15.50;41.99;96989.97;5115416;28;20051;-69
2022/07/18 01:42:56;;;;;;;1.77;1.20;;;;;;;15.38;42.06;96988.81;5115013;28;19919;-69
2022/07/18 01:45:23;;;;;;;1.52;1.13;;;;;;;15.20;40.75;96995.00;5114830;28;20131;-70
2022/07/18 01:47:51;;;;;;;4.15;1.30;;;;;;;15.14;41.54;96994.38;5114900;28;20128;-69
2022/07/18 01:50:18;;;;;;;2.08;1.10;;;;;;;15.02;42.16;97000.25;5114910;28;20466;-69
2022/07/18 01:52:45;;;;;;;2.05;1.27;;;;;;;15.01;42.71;97003.78;5114782;28;20082;-70
2022/07/18 01:55:14;;;;;;;0.80;0.80;;;;;;;14.96;43.72;96998.75;5114690;28;20083;-69
2022/07/18 01:57:41;;;;;;;2.97;1.25;;;;;;;14.88;42.87;96998.28;5114596;28;20135;-68
2022/07/18 02:00:11;;;;;;;1.13;0.98;;;;;;;14.85;44.19;97011.59;5114417;28;20062;-70
2022/07/18 02:02:38;;;;;;;3.50;0.90;;;;;;;14.64;41.67;97004.63;5114467;28;20043;-69
2022/07/18 02:05:07;;;;;;;2.05;1.10;;;;;;;14.52;41.99;97007.81;5114493;28;20047;-68
2022/07/18 02:07:37;;;;;;;1.83;1.10;;;;;;;14.56;43.57;97005.88;5114596;28;20051;-68
2022/07/18 02:10:06;;;;;;;1.97;1.60;;;;;;;14.59;44.74;97011.00;5114492;28;20081;-68
2022/07/18 02:12:35;;;;;;;3.47;0.95;;;;;;;14.57;44.55;97016.34;5114420;28;20051;-68
2022/07/18 02:15:02;;;;;;;2.17;1.30;;;;;;;14.52;44.51;97016.59;5114287;28;20055;-68
2022/07/18 02:17:29;;;;;;;1.90;1.10;;;;;;;14.46;44.98;97019.50;5114271;28;20079;-68
2022/07/18 02:19:56;;;;;;;3.15;1.10;;;;;;;14.43;44.81;97016.13;5114214;28;20048;-70
2022/07/18 02:22:24;;;;;;;7.60;1.42;;;;;;;14.34;43.50;97015.66;5114252;28;20405;-68
2022/07/18 02:24:51;;;;;;;1.17;1.05;;;;;;;14.32;42.98;97016.63;5114193;28;20047;-70
2022/07/18 02:27:18;;;;;;;1.58;1.38;;;;;;;14.26;43.37;97023.00;5114069;28;20071;-70
2022/07/18 02:29:47;;;;;;;1.20;1.10;;;;;;;14.23;44.05;97020.53;5114094;28;20062;-68
2022/07/18 02:32:15;;;;;;;5.82;1.10;;;;;;;14.24;45.67;97015.19;5113572;28;20065;-69
2022/07/18 02:34:42;;;;;;;1.52;1.02;;;;;;;14.19;45.44;97022.47;5113733;28;20126;-68
2022/07/18 02:37:10;;;;;;;7.57;1.10;;;;;;;14.14;45.00;97025.28;5114029;28;20055;-69
2022/07/18 02:39:37;;;;;;;3.58;1.45;;;;;;;14.16;45.66;97027.84;5113922;28;20050;-68
2022/07/18 02:42:05;;;;;;;4.68;1.40;;;;;;;14.10;45.27;97039.50;5113876;28;20100;-69
2022/07/18 02:44:32;;;;;;;2.95;1.10;;;;;;;14.12;46.01;97029.75;5113696;28;20051;-70
2022/07/18 02:47:01;;;;;;;1.20;1.10;;;;;;;14.13;45.82;97028.00;5113974;28;20187;-68
2022/07/18 02:49:28;;;;;;;1.70;1.40;;;;;;;13.99;46.81;97034.72;5113854;28;20043;-70
2022/07/18 02:52:00;;;;;;;3.15;1.30;;;;;;;13.95;47.25;97045.44;5113861;28;20054;-68
2022/07/18 02:54:30;;;;;;;2.97;1.30;;;;;;;13.87;47.91;97037.88;5113780;28;20047;-70
2022/07/18 02:56:57;;;;;;;2.38;1.25;;;;;;;13.84;47.55;97043.25;5113740;28;20044;-68
2022/07/18 02:59:25;;;;;;;4.05;1.30;;;;;;;13.79;48.39;97045.25;5113785;28;20070;-69
2022/07/18 03:01:53;;;;;;;1.40;1.17;;;;;;;13.68;48.71;97043.06;5113377;28;20079;-68
2022/07/18 03:04:24;;;;;;;1.33;1.20;;;;;;;13.49;45.80;97038.56;5113579;28;20132;-69
2022/07/18 03:06:51;;;;;;;2.85;1.30;;;;;;;13.54;46.90;97043.66;5113470;28;20075;-68
2022/07/18 03:09:19;;;;;;;3.40;1.20;;;;;;;13.57;46.50;97038.28;5113585;28;20051;-70
2022/07/18 03:11:46;;;;;;;3.92;1.17;;;;;;;13.60;47.09;97048.66;5113536;28;20493;-68
2022/07/18 03:14:13;;;;;;;1.77;1.27;;;;;;;13.58;47.67;97047.88;5113485;28;20071;-68
2022/07/18 03:16:40;;;;;;;2.15;0.77;;;;;;;13.51;47.63;97042.00;5113424;28;20049;-70
2022/07/18 03:19:07;;;;;;;2.42;1.35;;;;;;;13.55;46.15;97043.59;5113508;28;20455;-70
2022/07/18 03:21:36;;;;;;;2.42;1.38;;;;;;;13.62;47.74;97050.31;5113458;28;20091;-71
2022/07/18 03:24:03;;;;;;;5.63;1.23;;;;;;;13.66;48.23;97051.03;5113326;28;20044;-68
2022/07/18 03:26:31;;;;;;;2.95;1.20;;;;;;;13.72;48.99;97049.91;5113441;28;20139;-68
2022/07/18 03:28:58;;;;;;;2.97;1.20;;;;;;;13.77;48.09;97053.19;5113326;28;20131;-69
2022/07/18 03:31:26;;;;;;;1.45;1.25;;;;;;;13.77;47.81;97059.31;5113321;28;20050;-68
2022/07/18 03:33:53;;;;;;;1.55;1.40;;;;;;;13.80;48.78;97055.69;5113290;28;20051;-70
2022/07/18 03:36:21;;;;;;;1.42;1.00;;;;;;;13.86;48.67;97057.22;5113215;28;20058;-69
2022/07/18 03:38:50;;;;;;;1.83;1.48;;;;;;;13.85;48.51;97060.75;5113233;28;20445;-68
2022/07/18 03:41:17;;;;;;;1.88;1.35;;;;;;;13.85;48.84;97064.22;5113381;28;20051;-68
2022/07/18 03:43:45;;;;;;;1.45;1.17;;;;;;;13.87;50.25;97067.66;5113610;28;20485;-69
2022/07/18 03:46:12;;;;;;;1.33;1.05;;;;;;;13.96;48.32;97070.78;5116976;28;20142;-70
2022/07/18 03:48:39;;;;;;;3.47;1.15;;;;;;;14.26;48.11;97081.75;5117178;28;20122;-70
2022/07/18 03:51:07;;;;;;;1.65;1.35;;;;;;;14.72;48.73;97082.41;5116993;28;20145;-68
2022/07/18 03:53:34;;;;;;;5.15;1.60;;;;;;;15.07;48.02;97081.69;5117027;28;20556;-71
2022/07/18 03:56:03;;;;;;;4.45;1.52;;;;;;;15.59;46.91;97080.09;5117146;28;20048;-71
2022/07/18 03:58:31;;;;;;;1.08;0.98;;;;;;;16.13;44.99;97087.91;5117190;28;20048;-69
2022/07/18 04:00:58;;;;;;;5.20;1.13;;;;;;;16.71;45.77;97086.69;5116794;28;20138;-70
2022/07/18 04:03:25;;;;;;;1.35;1.10;;;;;;;17.24;44.93;97083.81;5116922;28;20047;-70
2022/07/18 04:05:53;;;;;;;1.55;1.17;;;;;;;17.71;43.93;97082.06;5116792;28;20070;-71
2022/07/18 04:08:20;;;;;;;2.22;1.40;;;;;;;18.10;42.87;97079.81;5116770;28;20058;-69
2022/07/18 04:10:48;;;;;;;2.83;1.05;;;;;;;18.40;39.44;97085.97;5116718;28;20048;-70
2022/07/18 04:13:17;;;;;;;2.78;1.38;;;;;;;18.73;37.60;97083.97;5116639;28;20062;-70
2022/07/18 04:15:44;;;;;;;1.30;1.20;;;;;;;18.95;37.98;97088.75;5116647;28;20134;-69
2022/07/18 04:18:12;;;;;;;4.10;1.63;;;;;;;19.40;38.54;97085.06;5116618;28;20489;-70
2022/07/18 04:20:40;;;;;;;2.38;1.35;;;;;;;19.82;38.55;97079.69;5116622;28;20405;-70
2022/07/18 04:23:08;;;;;;;11.65;4.82;;;;;;;20.23;38.41;97091.13;5116559;28;20055;-71
2022/07/18 04:25:39;;;;;;;2.35;1.75;;;;;;;20.57;36.39;97099.41;5116454;28;20386;-70
2022/07/18 04:28:07;;;;;;;3.38;1.70;;;;;;;20.90;35.86;97088.31;5116413;28;20043;-71
2022/07/18 04:30:37;;;;;;;1.85;1.02;;;;;;;21.36;37.28;97092.13;5116336;28;20047;-71
2022/07/18 04:33:07;;;;;;;5.22;1.50;;;;;;;21.69;37.63;97090.56;5116403;28;20058;-70
2022/07/18 04:35:36;;;;;;;3.65;1.48;;;;;;;21.96;36.30;97099.28;5116335;28;20047;-70
2022/07/18 04:38:04;;;;;;;3.60;1.38;;;;;;;22.34;36.43;97098.16;5116536;28;20059;-71
2022/07/18 04:40:32;;;;;;;4.78;1.40;;;;;;;22.71;35.94;97102.47;5116107;28;20118;-70
2022/07/18 04:43:00;;;;;;;4.72;1.40;;;;;;;23.03;36.89;97100.84;5116071;28;20481;-70
2022/07/18 04:45:27;;;;;;;1.95;1.58;;;;;;;23.38;36.34;97099.00;5116027;28;20090;-70
2022/07/18 04:47:57;;;;;;;2.95;1.40;;;;;;;23.67;34.53;97093.09;5116087;28;20043;-70
2022/07/18 04:50:25;;;;;;;6.50;1.80;;;;;;;24.03;34.64;97097.28;5115926;28;20050;-70
2022/07/18 04:52:53;;;;;;;4.35;1.15;;;;;;;24.41;34.23;97103.88;5115968;28;20134;-70
2022/07/18 04:55:22;;;;;;;3.35;1.10;;;;;;;24.74;33.39;97101.94;5115330;28;20051;-70
2022/07/18 04:57:50;;;;;;;2.05;1.10;;;;;;;24.99;33.94;97102.47;5115647;28;20055;-70
2022/07/18 05:00:20;;;;;;;3.28;1.45;;;;;;;25.24;31.49;97105.66;5115399;28;20048;-70
2022/07/18 05:02:49;;;;;;;9.82;1.30;;;;;;;25.44;32.01;97100.34;5115754;28;20097;-70
2022/07/18 05:05:19;;;;;;;1.30;1.20;;;;;;;25.72;31.98;97095.16;5115460;28;20167;-70
2022/07/18 05:07:50;;;;;;;6.68;1.40;;;;;;;26.00;32.47;97105.13;5115684;28;20054;-70
2022/07/18 05:10:20;;;;;;;3.33;1.00;;;;;;;26.24;32.59;97107.38;5115589;28;20050;-70
2022/07/18 05:12:50;;;;;;;3.45;1.00;;;;;;;26.36;31.32;97101.88;5115621;28;20408;-70
2022/07/18 05:15:22;;;;;;;2.95;1.30;;;;;;;26.54;30.33;97107.34;5115399;28;20043;-70
2022/07/18 05:17:50;;;;;;;6.80;1.27;;;;;;;26.78;28.84;97113.19;5115519;28;20479;-70
2022/07/18 05:20:21;;;;;;;2.38;1.17;;;;;;;27.06;29.28;97102.50;5115418;28;20052;-70
2022/07/18 05:22:48;;;;;;;6.13;1.13;;;;;;;27.27;29.03;97109.44;5115374;28;20051;-69
2022/07/18 05:25:16;;;;;;;4.30;1.33;;;;;;;27.38;28.35;97106.53;5115096;28;20093;-69
2022/07/18 05:27:44;;;;;;;1.52;1.20;;;;;;;27.58;28.56;97115.31;5097051;28;20077;-69
2022/07/18 05:30:14;;;;;;;3.58;1.13;;;;;;;27.73;27.87;97110.31;5115247;28;20093;-70
2022/07/18 05:32:43;;;;;;;2.63;1.23;;;;;;;27.93;28.97;97114.66;5115288;28;20126;-70
2022/07/18 05:35:12;;;;;;;1.40;1.13;;;;;;;27.84;30.32;97111.88;5115109;28;20043;-70
2022/07/18 05:37:41;;;;;;;3.67;1.30;;;;;;;27.97;30.02;97111.50;5115294;28;20401;-70
2022/07/18 05:40:11;;;;;;;2.38;1.00;;;;;;;27.84;28.94;97117.25;5114858;28;20071;-70
2022/07/18 05:42:38;;;;;;;;;;;;;;;28.11;30.77;97107.41;5115426;28;20051;-70
2022/07/18 05:45:07;;;;;;;1.10;1.00;;;;;;;28.29;24.49;97109.25;5114849;28;19919;-70
2022/07/18 05:47:34;;;;;;;3.05;1.20;;;;;;;28.57;28.29;97110.94;5114820;28;20673;-69
2022/07/18 05:50:02;;;;;;;2.90;1.00;;;;;;;28.96;28.20;97120.44;5114849;28;20489;-69
2022/07/18 05:52:30;;;;;;;3.85;1.48;;;;;;;29.36;27.32;97116.19;5114713;28;20093;-69
2022/07/18 05:54:58;;;;;;;2.33;1.30;;;;;;;29.61;24.48;97112.72;5114820;28;20393;-69
2022/07/18 05:57:25;;;;;;;4.15;1.25;;;;;;;29.75;23.79;97112.09;5114704;28;20048;-69
2022/07/18 05:59:53;;;;;;;4.22;1.45;;;;;;;29.82;22.74;97119.50;5114427;28;20058;-70
2022/07/18 06:02:20;;;;;;;4.00;1.50;;;;;;;29.77;22.73;97112.75;5114616;28;20047;-69
2022/07/18 06:04:47;;;;;;;5.07;1.38;;;;;;;29.98;23.03;97116.00;5114420;28;20043;-70
2022/07/18 06:07:14;;;;;;;1.98;1.10;;;;;;;30.08;21.18;97119.34;5113806;28;20396;-69
2022/07/18 06:09:41;;;;;;;1.48;1.20;;;;;;;29.89;21.07;97118.66;5114455;28;20112;-69
2022/07/18 06:12:10;;;;;;;4.28;1.20;;;;;;;30.16;19.34;97123.06;5114523;28;20048;-69
2022/07/18 06:14:37;;;;;;;2.17;1.20;;;;;;;30.36;21.82;97118.16;5114639;28;20047;-69
2022/07/18 06:17:04;;;;;;;2.63;1.20;;;;;;;30.65;24.21;97130.28;5114349;28;20082;-70
2022/07/18 06:19:31;;;;;;;2.00;1.10;;;;;;;30.71;23.03;97123.34;5114360;28;20522;-69
2022/07/18 06:22:00;;;;;;;1.55;1.10;;;;;;;30.94;21.70;97125.34;5114232;28;20485;-69
2022/07/18 06:24:28;;;;;;;3.67;1.48;;;;;;;31.19;21.56;97125.22;5114189;28;20512;-69
2022/07/18 06:26:57;;;;;;;4.55;1.50;;;;;;;31.40;21.99;97130.06;5114050;28;20051;-69
2022/07/18 06:29:26;;;;;;;4.65;1.30;;;;;;;31.69;21.19;97112.28;5113971;28;20557;-70
2022/07/18 06:31:54;;;;;;;6.65;1.40;;;;;;;31.77;21.53;97124.91;5113984;28;20044;-69
2022/07/18 06:34:21;;;;;;;4.18;1.50;;;;;;;31.93;21.84;97132.09;5114040;28;20044;-69
2022/07/18 06:36:48;;;;;;;2.90;1.63;;;;;;;32.00;22.24;97134.94;5114072;28;20052;-69
2022/07/18 06:39:18;;;;;;;4.38;1.50;;;;;;;32.20;22.61;97127.16;5114149;28;20048;-70
2022/07/18 06:41:45;;;;;;;3.85;1.73;;;;;;;32.32;23.11;97138.38;5114017;28;20096;-69
2022/07/18 06:44:13;;;;;;;4.20;1.88;;;;;;;32.30;22.85;97135.03;5113932;28;20040;-70
2022/07/18 06:46:42;;;;;;;2.40;1.42;;;;;;;32.18;23.00;97134.63;5113799;28;20051;-70
2022/07/18 06:49:09;;;;;;;4.15;1.83;;;;;;;32.01;23.98;97136.59;5113772;28;20044;-69
2022/07/18 06:51:37;;;;;;;6.97;1.98;;;;;;;32.10;24.00;97131.97;5113679;28;20052;-69
2022/07/18 06:54:04;;;;;;;3.38;1.45;;;;;;;32.00;24.14;97146.56;5113787;28;20055;-69
2022/07/18 06:56:32;;;;;;;5.20;1.98;;;;;;;32.03;24.27;97150.81;5113680;28;20047;-69
2022/07/18 06:58:59;;;;;;;5.63;2.15;;;;;;;31.72;23.55;97141.69;5113686;28;20054;-69
2022/07/18 07:01:26;;;;;;;3.28;2.00;;;;;;;31.20;24.71;97143.97;5113382;28;20062;-69
2022/07/18 07:03:55;;;;;;;7.97;2.15;;;;;;;31.07;24.46;97141.81;5113591;28;20505;-69
2022/07/18 07:06:22;;;;;;;5.88;1.85;;;;;;;31.07;24.69;97149.06;5113628;28;20047;-69
2022/07/18 07:08:49;;;;;;;2.00;1.80;;;;;;;31.26;24.90;97147.81;5113676;28;20557;-69
2022/07/18 07:11:17;;;;;;;3.65;1.90;;;;;;;31.60;24.14;97146.66;5113648;28;20047;-69
2022/07/18 07:13:44;;;;;;;3.53;1.92;;;;;;;31.03;24.01;97145.88;5113470;28;20105;-69
2022/07/18 07:16:14;;;;;;;7.07;1.90;;;;;;;29.92;24.33;97139.06;5113505;28;20480;-69
2022/07/18 07:18:41;;;;;;;6.07;2.47;;;;;;;28.70;26.00;97146.34;5113868;28;20047;-68
2022/07/18 07:21:10;;;;;;;8.85;2.60;;;;;;;28.49;26.31;97144.00;5117758;28;20060;-68
2022/07/18 07:23:37;;;;;;;4.80;2.60;;;;;;;28.09;27.36;97151.59;5117632;28;20098;-69
2022/07/18 07:26:04;;;;;;;4.50;2.28;;;;;;;28.06;26.99;97141.13;5117590;28;20500;-69
2022/07/18 07:28:31;;;;;;;9.30;2.55;;;;;;;28.24;27.32;97144.63;5117523;28;20054;-69
2022/07/18 07:30:58;;;;;;;7.47;3.10;;;;;;;28.43;26.36;97140.13;5117526;28;20554;-69
2022/07/18 07:33:25;;;;;;;7.25;2.28;;;;;;;28.61;25.49;97137.38;5117658;28;20047;-68
2022/07/18 07:35:52;;;;;;;4.28;2.47;;;;;;;28.64;25.80;97144.28;5117721;28;20404;-69
2022/07/18 07:38:27;;;;;;;9.18;2.30;;;;;;;28.37;26.90;97141.59;5117436;28;20085;-69
2022/07/18 07:40:55;;;;;;;2.70;2.00;;;;;;;28.67;25.90;97132.34;5117456;28;20489;-69
2022/07/18 07:43:23;;;;;;;4.18;1.80;;;;;;;29.01;25.00;97139.63;5117425;28;20048;-69
2022/07/18 07:45:55;;;;;;;6.57;2.25;;;;;;;28.94;23.96;97135.88;5117409;28;20447;-69
2022/07/18 07:48:24;;;;;;;2.85;1.75;;;;;;;28.77;24.48;97135.75;5116827;28;20501;-68
2022/07/18 07:50:52;;;;;;;3.60;1.83;;;;;;;28.85;26.34;97137.66;5117385;28;20496;-68
2022/07/18 07:53:21;;;;;;;5.75;2.08;;;;;;;29.45;24.32;97138.63;5117199;28;20054;-68
2022/07/18 07:55:48;;;;;;;4.63;1.50;;;;;;;29.30;23.60;97138.41;5117034;28;20104;-68
2022/07/18 07:58:16;;;;;;;6.60;1.88;;;;;;;29.37;23.58;97130.50;5117027;28;20087;-68
2022/07/18 08:00:44;;;;;;;6.03;1.60;;;;;;;29.66;23.47;97133.78;5116813;28;20047;-69
2022/07/18 08:03:11;;;;;;;4.38;1.80;;;;;;;29.73;22.13;97141.06;5117039;28;20070;-68
2022/07/18 08:05:45;;;;;;;5.93;1.48;;;;;;;29.94;21.16;97137.03;5116846;28;20054;-67
2022/07/18 08:08:13;;;;;;;5.72;1.92;;;;;;;29.85;21.76;97132.63;5116795;28;20044;-67
2022/07/18 08:10:42;;;;;;;2.95;1.80;;;;;;;29.98;22.63;97132.16;5116776;28;20052;-67
2022/07/18 08:13:10;;;;;;;5.03;1.65;;;;;;;29.98;22.83;97124.91;5116915;28;20040;-67
2022/07/18 08:15:37;;;;;;;5.22;1.70;;;;;;;30.13;22.12;97135.84;5116754;28;20229;-67
2022/07/18 08:18:05;;;;;;;7.05;2.05;;;;;;;29.70;22.80;97141.38;5116674;28;20506;-68
2022/07/18 08:20:33;;;;;;;3.00;2.08;;;;;;;29.08;24.59;97142.53;5116627;28;20054;-68
2022/07/18 08:23:02;;;;;;;9.27;2.35;;;;;;;29.11;25.58;97129.56;5116526;28;20048;-69
2022/07/18 08:25:31;;;;;;;3.88;1.90;;;;;;;29.12;25.00;97130.41;5116462;28;20123;-68
2022/07/18 08:28:00;;;;;;;3.30;1.88;;;;;;;29.20;25.05;97132.31;5116454;28;20058;-68
2022/07/18 08:30:28;;;;;;;3.80;2.20;;;;;;;29.54;25.90;97126.00;5115331;28;20052;-69
2022/07/18 08:32:58;;;;;;;8.38;1.70;;;;;;;29.75;25.01;97124.72;5116340;28;20048;-69
2022/07/18 08:35:26;;;;;;;3.13;2.03;;;;;;;29.99;24.83;97123.91;5116364;28;20047;-69
2022/07/18 08:37:54;;;;;;;5.80;2.38;;;;;;;29.49;26.76;97133.72;5116300;28;20047;-67
2022/07/18 08:40:21;;;;;;;4.32;2.40;;;;;;;29.13;25.44;97124.88;5116146;28;20048;-67
2022/07/18 08:42:52;;;;;;;4.20;1.92;;;;;;;29.12;25.52;97125.88;5116079;28;20052;-68
2022/07/18 08:45:23;;;;;;;7.97;2.28;;;;;;;28.98;25.82;97118.41;5116091;28;20443;-67
2022/07/18 08:47:51;;;;;;;5.03;2.53;;;;;;;29.21;26.24;97126.75;5115921;28;20484;-67
2022/07/18 08:50:19;;;;;;;6.72;2.35;;;;;;;29.33;26.22;97126.44;5116149;28;20047;-67
2022/07/18 08:52:46;;;;;;;5.78;2.42;;;;;;;29.06;26.00;97125.69;5115899;28;20122;-69
2022/07/18 08:55:14;;;;;;;5.22;2.10;;;;;;;29.14;26.59;97139.19;5116005;28;20130;-69
2022/07/18 08:57:42;;;;;;;4.70;2.20;;;;;;;28.97;26.67;97136.41;5115943;28;20075;-68
2022/07/18 09:00:11;;;;;;;7.90;2.58;;;;;;;28.84;27.25;97128.72;5115541;28;20086;-68
2022/07/18 09:02:39;;;;;;;9.75;2.47;;;;;;;29.01;27.91;97123.47;5115717;28;20122;-68
2022/07/18 09:05:19;;;;;;;3.83;2.20;;;;;;;28.93;26.63;97129.69;5115643;28;20044;-69
2022/07/18 09:07:46;;;;;;;6.90;2.70;;;;;;;29.00;26.77;97128.03;5115769;28;20489;-68
2022/07/18 09:10:13;;;;;;;5.00;2.17;;;;;;;29.30;27.23;97133.00;5115650;28;20051;-69
2022/07/18 09:12:57;;;;;;;6.00;2.38;;;;;;;29.44;26.95;97122.63;5115621;28;20048;-68
2022/07/18 09:15:25;;;;;;;8.85;2.20;;;;;;;29.95;25.40;97117.13;5115624;28;20086;-69
2022/07/18 09:17:57;;;;;;;3.90;2.30;;;;;;;30.16;24.75;97110.47;5115582;28;20039;-68
2022/07/18 09:20:25;;;;;;;6.43;2.45;;;;;;;29.71;25.59;97108.03;5115512;28;20124;-68
2022/07/18 09:22:52;;;;;;;5.18;2.97;;;;;;;29.89;26.37;97113.28;5115403;28;20129;-68
2022/07/18 09:25:21;;;;;;;3.33;2.00;;;;;;;29.54;26.55;97111.69;5115527;28;20123;-68
2022/07/18 09:27:50;;;;;;;4.53;2.15;;;;;;;29.92;26.87;97112.13;5115156;28;20051;-68
2022/07/18 09:30:23;;;;;;;4.07;2.10;;;;;;;29.86;28.72;97124.38;5115411;28;20040;-69
2022/07/18 09:32:52;;;;;;;3.17;2.20;;;;;;;29.65;28.18;97111.41;5115239;28;20100;-69
2022/07/18 09:35:24;;;;;;;3.35;2.28;;;;;;;29.72;28.39;97114.28;5115217;28;20044;-69
2022/07/18 09:38:03;;;;;;;3.58;2.15;;;;;;;29.82;28.60;97116.78;5115036;28;20043;-69
2022/07/18 09:40:33;;;;;;;3.65;2.00;;;;;;;29.81;28.80;97126.75;5115034;28;20507;-68
2022/07/18 09:43:02;;;;;;;7.53;2.38;;;;;;;29.38;29.66;97122.25;5114762;28;20047;-69
2022/07/18 09:45:32;;;;;;;8.65;2.30;;;;;;;29.04;30.70;97130.41;5114957;28;20048;-68
2022/07/18 09:48:02;;;;;;;3.30;2.28;;;;;;;28.88;30.31;97124.75;5114949;28;20044;-68
2022/07/18 09:50:33;;;;;;;3.75;2.50;;;;;;;28.63;29.84;97121.91;5114842;28;20044;-68
2022/07/18 09:53:07;;;;;;;3.78;1.90;;;;;;;28.59;30.05;97117.03;5114804;28;20462;-68
2022/07/18 09:55:36;;;;;;;5.88;2.17;;;;;;;28.82;29.29;97109.22;5114801;28;20048;-68
2022/07/18 09:58:06;;;;;;;6.90;2.42;;;;;;;29.02;29.06;97106.31;5114694;28;20493;-68
2022/07/18 10:00:36;;;;;;;6.03;2.75;;;;;;;29.23;29.56;97105.88;5114490;28;20108;-68
2022/07/18 10:03:06;;;;;;;5.47;2.28;;;;;;;29.14;30.03;97115.78;5096671;28;20379;-68
2022/07/18 10:05:36;;;;;;;6.47;2.65;;;;;;;28.76;30.75;97107.19;5114662;28;20138;-67
2022/07/18 10:08:05;;;;;;;5.10;2.30;;;;;;;28.88;31.01;97097.81;5114418;28;20055;-68
2022/07/18 10:10:37;;;;;;;8.02;2.30;;;;;;;29.30;31.64;97097.16;5114607;28;20477;-67
2022/07/18 10:13:06;;;;;;;5.35;2.30;;;;;;;29.83;27.96;97097.75;5114449;28;20133;-68
2022/07/18 10:15:35;;;;;;;6.22;2.55;;;;;;;29.65;28.81;97095.25;5114390;28;20079;-68
2022/07/18 10:18:04;;;;;;;2.28;2.08;;;;;;;29.23;26.83;97089.72;5114374;28;20075;-68
2022/07/18 10:20:36;;;;;;;4.95;2.10;;;;;;;28.75;27.80;97090.19;5114297;28;20047;-68
2022/07/18 10:23:09;;;;;;;5.78;2.40;;;;;;;28.36;28.39;97088.78;5114140;28;20044;-68
2022/07/18 10:25:37;;;;;;;4.90;2.08;;;;;;;28.18;28.70;97078.06;5114250;28;20047;-68
2022/07/18 10:28:08;;;;;;;4.75;2.10;;;;;;;27.97;28.97;97081.09;5114063;28;20056;-68
2022/07/18 10:30:43;;;;;;;3.85;2.08;;;;;;;27.70;29.14;97077.50;5114309;28;20144;-68
2022/07/18 10:33:38;;;;;;;7.70;2.40;;;;;;;27.58;30.48;97071.50;5114243;28;20089;-68
2022/07/18 10:36:09;;;;;;;10.20;2.47;;;;;;;27.55;30.55;97074.47;5114097;28;20051;-68
2022/07/18 10:38:38;;;;;;;5.53;2.38;;;;;;;27.70;32.08;97061.38;5114298;28;20124;-68
2022/07/18 10:41:11;;;;;;;4.63;2.20;;;;;;;27.77;30.38;97072.34;5113937;28;20044;-67
2022/07/18 10:43:42;;;;;;;8.77;2.10;;;;;;;28.03;30.53;97068.88;5113939;28;20052;-68
2022/07/18 10:46:10;;;;;;;5.07;2.88;;;;;;;28.57;29.50;97063.38;5113943;28;20050;-68
2022/07/18 10:48:58;;;;;;;6.72;2.10;;;;;;;29.08;28.77;97065.25;5113898;28;20047;-68
2022/07/18 10:51:34;;;;;;;8.05;2.22;;;;;;;29.46;27.59;97062.16;5113971;28;20293;-67
2022/07/18 10:54:15;;;;;;;3.97;1.88;;;;;;;29.37;27.11;97074.78;5113213;28;20043;-68
2022/07/18 10:57:11;;;;;;;2.97;2.25;;;;;;;28.79;27.96;97077.25;5113822;28;20051;-67
2022/07/18 11:00:00;;;;;;;3.35;2.25;;;;;;;28.28;29.91;97072.56;5113496;28;20047;-68
2022/07/18 11:02:36;;;;;;;6.00;2.22;;;;;;;27.86;31.36;97084.84;5113677;28;20100;-68
2022/07/18 11:05:04;;;;;;;2.95;2.10;;;;;;;27.58;31.32;97076.88;5113605;28;20044;-67
2022/07/18 11:07:33;;;;;;;8.23;2.22;;;;;;;27.37;32.17;97076.19;5113609;28;20409;-68
2022/07/18 11:10:03;;;;;;;4.47;1.90;;;;;;;27.37;32.37;97068.13;5113602;28;20462;-68
2022/07/18 11:12:33;;;;;;;6.25;2.50;;;;;;;27.84;32.58;97068.88;5113503;28;20053;-68
2022/07/18 11:15:07;;;;;;;7.55;2.45;;;;;;;28.21;31.33;97058.06;5113492;28;20098;-68
2022/07/18 11:17:58;;;;;;;7.05;2.50;;;;;;;28.48;28.97;97057.06;5113418;28;20056;-68
2022/07/18 11:20:47;;;;;;;4.57;2.28;;;;;;;28.88;28.32;97052.06;5113594;28;20515;-68
2022/07/18 11:23:19;;;;;;;6.80;2.17;;;;;;;29.05;27.57;97059.38;5107473;28;20131;-68
2022/07/18 11:25:47;;;;;;;2.38;1.92;;;;;;;29.03;27.31;97048.78;5113566;28;20084;-68
2022/07/18 11:28:14;;;;;;;4.47;2.45;;;;;;;29.15;27.69;97049.31;5113373;28;20048;-68
2022/07/18 11:30:42;;;;;;;2.85;2.03;;;;;;;29.24;28.56;97053.72;5113538;28;20040;-68
2022/07/18 11:33:23;;;;;;;7.50;2.47;;;;;;;28.81;28.76;97055.56;5113393;28;20482;-68
2022/07/18 11:35:51;;;;;;;4.07;2.15;;;;;;;28.93;30.68;97037.28;5113394;28;20056;-68
2022/07/18 11:38:20;;;;;;;12.65;2.42;;;;;;;28.81;29.61;97036.72;5113321;28;20131;-68
2022/07/18 11:40:50;;;;;;;4.60;2.47;;;;;;;28.63;29.42;97034.97;5112678;28;20067;-68
2022/07/18 11:43:23;;;;;;;5.35;2.03;;;;;;;28.75;29.04;97043.59;5113276;28;20477;-68
2022/07/18 11:46:00;;;;;;;3.33;2.08;;;;;;;28.53;29.12;97034.25;5113150;28;20055;-68